createdAt,value
2022-09-09T00:00:24.046Z,100.00
2022-09-09T00:15:24.134Z,100.00
2022-09-09T00:30:24.717Z,100.00
2022-09-09T00:45:24.109Z,100.00
2022-09-09T01:00:24.283Z,100.00
2022-09-09T01:15:24.355Z,100.00
2022-09-09T01:30:24.159Z,100.00
2022-09-09T01:45:24.183Z,100.00
2022-09-09T02:00:33.371Z,100.00
2022-09-09T02:15:24.413Z,100.00
2022-09-09T02:30:23.304Z,100.00
2022-09-09T02:45:23.612Z,100.00
2022-09-09T03:00:23.609Z,100.00
2022-09-09T03:15:23.531Z,100.00
2022-09-09T03:30:23.445Z,100.00
2022-09-09T03:45:23.548Z,100.00
2022-09-09T04:00:23.508Z,100.00
2022-09-09T04:15:23.599Z,100.00
2022-09-09T04:30:25.998Z,100.00
2022-09-09T04:45:24.086Z,100.00
2022-09-09T05:00:32.255Z,100.00
2022-09-09T05:15:23.853Z,100.00
2022-09-09T05:30:25.742Z,100.00
2022-09-09T05:45:23.632Z,100.00
2022-09-09T06:00:40.856Z,100.00
2022-09-09T06:15:23.697Z,100.00
2022-09-09T06:30:23.653Z,100.00
2022-09-09T06:45:23.689Z,100.00
2022-09-09T07:00:40.743Z,100.00
2022-09-09T07:15:23.830Z,100.00
2022-09-09T07:30:27.900Z,100.00
2022-09-09T07:45:23.819Z,100.00
2022-09-09T08:00:28.394Z,100.00
2022-09-09T08:15:23.943Z,100.00
2022-09-09T08:30:23.883Z,100.00
2022-09-09T08:45:23.784Z,100.00
2022-09-09T09:00:44.290Z,100.00
2022-09-09T09:15:23.821Z,100.00
2022-09-09T09:30:30.225Z,100.00
2022-09-09T09:45:23.811Z,100.00
2022-09-09T10:00:28.454Z,100.00
2022-09-09T10:15:24.269Z,100.00
2022-09-09T10:30:24.611Z,100.00
2022-09-09T10:45:24.061Z,91.73
2022-09-09T11:00:27.669Z,83.50
2022-09-09T11:15:24.048Z,75.43
2022-09-09T11:30:54.854Z,76.23
2022-09-09T11:45:24.194Z,92.00
2022-09-09T12:00:39.563Z,78.70
2022-09-09T12:15:24.496Z,66.17
2022-09-09T12:30:42.769Z,64.23
2022-09-09T12:45:33.277Z,71.10
2022-09-09T13:00:44.821Z,66.80
2022-09-09T13:15:23.311Z,66.65
2022-09-09T13:30:28.679Z,61.27
2022-09-09T13:45:23.468Z,63.73
2022-09-09T14:00:34.211Z,68.95
2022-09-09T14:15:23.612Z,62.33
2022-09-09T14:30:28.690Z,58.20
2022-09-09T14:45:23.388Z,58.13
2022-09-09T15:00:32.655Z,58.10
2022-09-09T15:15:23.393Z,59.87
2022-09-09T15:30:26.858Z,56.93
2022-09-09T15:45:23.525Z,59.90
2022-09-09T16:00:24.497Z,59.73
2022-09-09T16:15:23.555Z,57.20
2022-09-09T16:30:25.658Z,58.90
2022-09-09T16:45:23.886Z,62.70
2022-09-09T17:00:55.908Z,66.85
2022-09-09T17:15:23.840Z,72.57
2022-09-09T17:30:28.851Z,77.93
2022-09-09T17:45:23.717Z,84.07
2022-09-09T18:00:48.879Z,93.03
2022-09-09T18:15:39.238Z,94.47
2022-09-09T18:30:30.143Z,90.30
2022-09-09T18:45:23.753Z,92.30
2022-09-09T19:00:31.146Z,92.33
2022-09-09T19:15:24.132Z,97.47
2022-09-09T19:30:23.830Z,100.00
2022-09-09T19:45:23.773Z,100.00
2022-09-09T20:00:23.937Z,100.00
2022-09-09T20:15:24.124Z,100.00
2022-09-09T20:30:23.939Z,100.00
2022-09-09T20:45:24.054Z,100.00
2022-09-09T21:00:23.986Z,100.00
2022-09-09T21:15:24.152Z,100.00
2022-09-09T21:30:31.571Z,100.00
2022-09-09T21:45:24.002Z,100.00
2022-09-09T22:15:24.235Z,100.00
2022-09-09T22:30:24.382Z,100.00
2022-09-09T22:45:24.297Z,100.00
2022-09-09T23:00:24.206Z,100.00
2022-09-09T23:15:24.246Z,100.00
